createdAt,value
2022-08-02T00:00:42.125Z,28.00
2022-08-02T00:03:10.477Z,28.00
2022-08-02T00:05:40.421Z,28.00
2022-08-02T00:08:08.820Z,28.00
2022-08-02T00:10:37.672Z,28.00
2022-08-02T00:13:06.154Z,28.00
2022-08-02T00:15:34.478Z,28.00
2022-08-02T00:18:02.696Z,28.00
2022-08-02T00:20:31.341Z,28.00
2022-08-02T00:23:01.004Z,28.00
2022-08-02T00:25:29.285Z,28.00
2022-08-02T00:27:57.593Z,28.00
2022-08-02T00:30:26.084Z,27.90
2022-08-02T00:32:54.373Z,27.90
2022-08-02T00:35:22.824Z,27.90
2022-08-02T00:37:51.201Z,27.90
2022-08-02T00:40:23.970Z,27.90
2022-08-02T00:43:04.237Z,27.90
2022-08-02T00:46:03.383Z,27.90
2022-08-02T00:48:23.207Z,27.90
2022-08-02T00:50:51.435Z,27.90
2022-08-02T00:53:19.696Z,27.90
2022-08-02T00:55:49.500Z,27.80
2022-08-02T00:58:17.783Z,27.80
2022-08-02T01:00:46.074Z,27.80
2022-08-02T01:03:14.360Z,27.80
2022-08-02T01:06:10.061Z,27.80
2022-08-02T01:08:35.584Z,27.70
2022-08-02T01:11:12.768Z,27.70
2022-08-02T01:13:41.329Z,27.70
2022-08-02T01:16:17.007Z,27.70
2022-08-02T01:18:48.978Z,27.70
2022-08-02T01:21:36.161Z,27.70
2022-08-02T01:24:36.082Z,27.70
2022-08-02T01:27:21.271Z,27.70
2022-08-02T01:29:58.062Z,27.70
2022-08-02T01:32:30.593Z,27.70
2022-08-02T01:35:03.715Z,27.70
2022-08-02T01:37:39.026Z,27.70
2022-08-02T01:40:11.343Z,27.70
2022-08-02T01:42:42.920Z,27.70
2022-08-02T01:45:14.445Z,27.70
2022-08-02T01:47:44.656Z,27.70
2022-08-02T01:50:15.320Z,27.70
2022-08-02T01:52:53.378Z,27.70
2022-08-02T01:55:28.231Z,27.60
2022-08-02T01:58:06.751Z,27.60
2022-08-02T02:00:40.155Z,27.60
2022-08-02T02:03:13.567Z,27.60
2022-08-02T02:05:44.412Z,27.60
2022-08-02T02:08:13.636Z,27.60
2022-08-02T02:10:57.151Z,27.60
2022-08-02T02:13:33.317Z,27.60
2022-08-02T02:16:10.448Z,27.60
2022-08-02T02:18:43.826Z,27.60
2022-08-02T02:21:13.848Z,27.60
2022-08-02T02:23:43.555Z,27.60
2022-08-02T02:26:14.894Z,27.60
2022-08-02T02:28:48.910Z,27.60
2022-08-02T02:31:20.793Z,27.60
2022-08-02T02:33:52.230Z,27.60
2022-08-02T02:36:22.238Z,27.50
2022-08-02T02:38:52.814Z,27.60
2022-08-02T02:41:23.660Z,27.50
2022-08-02T02:43:54.211Z,27.50
2022-08-02T02:46:24.954Z,27.50
2022-08-02T02:48:53.857Z,27.50
2022-08-02T02:51:23.355Z,27.50
2022-08-02T02:54:32.064Z,27.50
2022-08-02T02:56:43.588Z,27.50
2022-08-02T02:59:14.953Z,27.50
2022-08-02T03:01:56.910Z,27.50
2022-08-02T03:04:56.453Z,27.50
2022-08-02T03:07:16.290Z,27.50
2022-08-02T03:09:44.831Z,27.50
2022-08-02T03:12:15.772Z,27.50
2022-08-02T03:14:49.473Z,27.50
2022-08-02T03:17:19.204Z,27.50
2022-08-02T03:19:47.872Z,27.50
2022-08-02T03:22:16.059Z,27.50
2022-08-02T03:24:44.304Z,27.50
2022-08-02T03:27:12.519Z,27.50
2022-08-02T03:29:40.678Z,27.50
2022-08-02T03:32:09.352Z,27.50
2022-08-02T03:34:39.266Z,27.40
2022-08-02T03:37:07.929Z,27.40
2022-08-02T03:39:36.727Z,27.40
2022-08-02T03:42:11.042Z,27.40
2022-08-02T03:44:44.282Z,27.40
2022-08-02T03:47:13.709Z,27.50
2022-08-02T03:49:44.894Z,27.40
2022-08-02T03:52:13.720Z,27.40
2022-08-02T03:54:45.410Z,27.40
2022-08-02T03:57:14.814Z,27.40
2022-08-02T03:59:43.652Z,27.40
2022-08-02T04:02:12.762Z,27.40
2022-08-02T04:04:42.564Z,27.40
2022-08-02T04:07:10.789Z,27.40
2022-08-02T04:09:39.673Z,27.40
2022-08-02T04:12:07.254Z,27.40
2022-08-02T04:14:36.517Z,27.40
2022-08-02T04:17:09.359Z,27.40
2022-08-02T04:19:41.825Z,27.40
2022-08-02T04:22:18.047Z,27.40
2022-08-02T04:24:50.115Z,27.40
2022-08-02T04:27:51.221Z,27.40
2022-08-02T04:30:10.357Z,27.40
2022-08-02T04:32:39.384Z,27.40
2022-08-02T04:35:19.212Z,27.40
2022-08-02T04:38:09.415Z,27.40
2022-08-02T04:40:38.865Z,27.40
2022-08-02T04:43:07.297Z,27.40
2022-08-02T04:45:36.717Z,27.40
2022-08-02T04:48:07.068Z,27.40
2022-08-02T04:50:35.473Z,27.40
2022-08-02T04:53:05.479Z,27.40
2022-08-02T04:55:33.974Z,27.40
2022-08-02T04:58:06.675Z,27.40
2022-08-02T05:00:42.112Z,27.40
2022-08-02T05:03:10.455Z,27.40
2022-08-02T05:05:39.356Z,27.40
2022-08-02T05:08:08.894Z,27.40
2022-08-02T05:10:37.163Z,27.40
2022-08-02T05:13:06.899Z,27.40
2022-08-02T05:15:35.280Z,27.40
2022-08-02T05:18:03.469Z,27.40
2022-08-02T05:20:31.665Z,27.40
2022-08-02T05:22:59.880Z,27.40
2022-08-02T05:25:29.584Z,27.40
2022-08-02T05:27:57.803Z,27.40
2022-08-02T05:30:26.110Z,27.40
2022-08-02T05:32:54.306Z,27.40
2022-08-02T05:35:24.968Z,27.40
2022-08-02T05:37:53.736Z,27.40
2022-08-02T05:40:25.418Z,27.40
2022-08-02T05:42:55.784Z,27.40
2022-08-02T05:45:24.145Z,27.40
2022-08-02T05:47:52.996Z,27.50
2022-08-02T05:50:21.755Z,27.40
2022-08-02T05:53:03.000Z,27.40
2022-08-02T05:55:36.032Z,27.40
2022-08-02T05:58:12.976Z,27.40
2022-08-02T06:00:42.676Z,27.50
2022-08-02T06:03:20.075Z,27.50
2022-08-02T06:05:54.954Z,27.50
2022-08-02T06:08:26.461Z,27.50
2022-08-02T06:11:01.139Z,27.50
2022-08-02T06:13:31.047Z,27.50
2022-08-02T06:16:00.621Z,27.60
2022-08-02T06:18:29.505Z,27.60
2022-08-02T06:22:29.891Z,27.60
2022-08-02T06:23:58.063Z,27.60
2022-08-02T06:26:29.186Z,27.60
2022-08-02T06:28:59.995Z,27.60
2022-08-02T06:31:28.278Z,27.60
2022-08-02T06:33:56.572Z,27.70
2022-08-02T06:36:33.162Z,27.70
2022-08-02T06:39:05.480Z,27.70
2022-08-02T06:41:40.461Z,27.70
2022-08-02T06:47:11.489Z,27.80
2022-08-02T06:49:52.019Z,27.80
2022-08-02T06:52:27.831Z,27.80
2022-08-02T06:54:58.295Z,27.90
2022-08-02T06:57:26.554Z,27.90
2022-08-02T06:59:56.178Z,27.90
2022-08-02T07:02:24.646Z,27.90
2022-08-02T07:04:52.804Z,27.90
2022-08-02T07:07:21.118Z,28.00
2022-08-02T07:09:56.984Z,28.00
2022-08-02T07:12:30.898Z,28.00
2022-08-02T07:15:01.302Z,28.00
2022-08-02T07:17:29.787Z,28.00
2022-08-02T07:19:58.277Z,28.10
2022-08-02T07:22:27.534Z,28.10
2022-08-02T07:24:56.716Z,28.10
2022-08-02T07:27:25.295Z,28.10
2022-08-02T07:29:53.883Z,28.10
2022-08-02T07:32:25.888Z,28.10
2022-08-02T07:34:55.998Z,28.10
2022-08-02T07:37:53.899Z,28.10
2022-08-02T07:40:20.187Z,28.20
2022-08-02T07:42:49.379Z,28.20
2022-08-02T07:45:17.595Z,28.20
2022-08-02T07:47:47.182Z,28.20
2022-08-02T07:50:16.814Z,28.20
2022-08-02T07:52:46.399Z,28.20
2022-08-02T07:55:17.887Z,28.20
2022-08-02T07:57:47.283Z,28.20
2022-08-02T08:00:17.797Z,28.20
2022-08-02T08:02:48.137Z,28.30
2022-08-02T08:05:16.596Z,28.30
2022-08-02T08:07:44.866Z,28.30
2022-08-02T08:10:13.055Z,28.30
2022-08-02T08:12:41.319Z,28.30
2022-08-02T08:15:10.536Z,28.30
2022-08-02T08:17:39.157Z,28.30
2022-08-02T08:20:12.865Z,28.30
2022-08-02T08:22:44.343Z,28.30
2022-08-02T08:25:12.905Z,28.30
2022-08-02T08:27:50.078Z,28.30
2022-08-02T08:30:18.360Z,28.30
2022-08-02T08:32:47.051Z,28.40
2022-08-02T08:35:17.134Z,28.40
2022-08-02T08:37:45.355Z,28.40
2022-08-02T08:40:19.406Z,28.40
2022-08-02T08:42:48.840Z,28.40
2022-08-02T08:45:18.041Z,28.50
2022-08-02T08:47:53.218Z,28.50
2022-08-02T08:50:29.158Z,28.50
2022-08-02T08:53:04.171Z,28.50
2022-08-02T08:55:33.700Z,28.50
2022-08-02T08:58:03.468Z,28.60
2022-08-02T09:00:33.591Z,28.60
2022-08-02T09:03:04.686Z,28.60
2022-08-02T09:05:35.991Z,28.60
2022-08-02T09:08:04.641Z,28.60
2022-08-02T09:10:34.805Z,28.60
2022-08-02T09:13:38.368Z,28.60
2022-08-02T09:16:17.089Z,28.60
2022-08-02T09:18:47.588Z,28.60
2022-08-02T09:21:18.096Z,28.60
2022-08-02T09:23:47.483Z,28.60
2022-08-02T09:26:17.121Z,28.60
2022-08-02T09:28:47.549Z,28.70
2022-08-02T09:31:18.110Z,28.70
2022-08-02T09:33:54.652Z,28.70
2022-08-02T09:36:25.793Z,28.70
2022-08-02T09:38:56.836Z,28.70
2022-08-02T09:41:27.110Z,28.70
2022-08-02T09:44:04.416Z,28.80
2022-08-02T09:46:38.894Z,28.80
2022-08-02T09:49:09.792Z,28.80
2022-08-02T09:51:41.999Z,28.80
2022-08-02T09:54:12.814Z,28.80
2022-08-02T09:56:46.409Z,28.80
2022-08-02T09:59:15.453Z,28.90
2022-08-02T10:01:51.691Z,28.90
2022-08-02T10:04:34.559Z,28.90
2022-08-02T10:07:22.646Z,28.90
2022-08-02T10:09:52.726Z,28.80
2022-08-02T10:12:22.326Z,28.80
2022-08-02T10:14:52.560Z,28.80
2022-08-02T10:17:22.217Z,28.80
2022-08-02T10:20:03.474Z,28.80
2022-08-02T10:22:34.899Z,28.80
2022-08-02T10:25:05.842Z,28.90
2022-08-02T10:28:02.575Z,28.80
2022-08-02T10:30:26.011Z,28.90
2022-08-02T10:32:57.915Z,28.90
2022-08-02T10:35:27.160Z,28.90
2022-08-02T10:38:03.310Z,28.90
2022-08-02T10:40:44.855Z,28.90
2022-08-02T10:43:13.542Z,28.90
2022-08-02T10:45:41.840Z,28.90
2022-08-02T10:48:14.515Z,29.00
2022-08-02T10:50:55.824Z,29.00
2022-08-02T10:53:27.921Z,29.00
2022-08-02T10:55:58.494Z,29.00
2022-08-02T10:58:30.155Z,29.00
2022-08-02T11:00:59.879Z,29.00
2022-08-02T11:03:46.321Z,29.10
2022-08-02T11:06:25.319Z,29.10
2022-08-02T11:09:32.391Z,29.10
2022-08-02T11:12:04.294Z,29.10
2022-08-02T11:14:35.050Z,29.20
2022-08-02T11:17:24.997Z,29.20
2022-08-02T11:20:16.078Z,29.20
2022-08-02T11:22:47.308Z,29.20
2022-08-02T11:26:01.369Z,29.30
2022-08-02T11:28:25.823Z,29.30
2022-08-02T11:31:02.826Z,29.30
2022-08-02T11:33:36.843Z,29.30
2022-08-02T11:36:16.508Z,29.40
2022-08-02T11:38:45.120Z,29.50
2022-08-02T11:41:47.126Z,29.50
2022-08-02T11:44:10.388Z,29.60
2022-08-02T11:46:38.744Z,29.70
2022-08-02T11:49:17.176Z,29.80
2022-08-02T11:51:57.515Z,29.90
2022-08-02T11:54:35.281Z,30.00
2022-08-02T11:57:19.902Z,30.10
2022-08-02T11:59:51.938Z,30.20
2022-08-02T12:02:21.654Z,30.30
2022-08-02T12:04:58.538Z,30.40
2022-08-02T12:07:35.450Z,30.50
2022-08-02T12:10:06.947Z,30.70
2022-08-02T12:12:49.045Z,30.80
2022-08-02T12:15:17.567Z,30.90
2022-08-02T12:18:06.233Z,31.00
2022-08-02T12:20:38.381Z,31.20
2022-08-02T12:23:06.968Z,31.30
2022-08-02T12:25:35.714Z,31.60
2022-08-02T12:28:22.473Z,31.60
2022-08-02T12:30:53.373Z,31.50
2022-08-02T12:33:22.952Z,31.40
2022-08-02T12:35:51.487Z,31.40
2022-08-02T12:38:19.868Z,31.50
2022-08-02T12:40:48.529Z,31.70
2022-08-02T12:43:23.578Z,31.80
2022-08-02T12:45:54.097Z,31.90
2022-08-02T12:48:39.230Z,32.00
2022-08-02T12:51:21.095Z,31.80
2022-08-02T12:53:59.834Z,31.50
2022-08-02T12:56:30.643Z,31.30
2022-08-02T12:59:00.542Z,31.10
2022-08-02T13:01:30.040Z,31.20
2022-08-02T13:04:12.279Z,31.40
2022-08-02T13:06:44.490Z,31.40
2022-08-02T13:09:16.301Z,31.40
2022-08-02T13:11:44.826Z,31.30
2022-08-02T13:14:14.884Z,31.30
2022-08-02T13:16:44.488Z,31.30
2022-08-02T13:19:13.277Z,31.40
2022-08-02T13:22:02.584Z,31.50
2022-08-02T13:24:40.126Z,31.40
2022-08-02T13:27:18.366Z,31.30
2022-08-02T13:29:48.742Z,31.10
2022-08-02T13:32:17.424Z,30.90
2022-08-02T13:34:46.483Z,30.80
2022-08-02T13:37:14.807Z,30.90
2022-08-02T13:39:55.319Z,30.90
2022-08-02T13:42:31.293Z,30.90
2022-08-02T13:45:00.849Z,30.90
2022-08-02T13:47:57.356Z,31.00
2022-08-02T13:50:30.225Z,31.10
2022-08-02T13:52:58.726Z,31.20
2022-08-02T13:55:27.967Z,31.30
2022-08-02T13:57:56.201Z,31.40
2022-08-02T14:00:35.287Z,31.40
2022-08-02T14:03:06.011Z,31.40
2022-08-02T14:05:39.116Z,31.40
2022-08-02T14:08:16.894Z,31.50
2022-08-02T14:10:45.771Z,31.50
2022-08-02T14:13:14.127Z,31.40
2022-08-02T14:15:44.009Z,31.40
2022-08-02T14:18:13.877Z,31.40
2022-08-02T14:20:42.163Z,31.40
2022-08-02T14:23:10.323Z,31.40
2022-08-02T14:25:38.696Z,31.30
2022-08-02T14:28:07.070Z,31.30
2022-08-02T14:30:35.529Z,31.30
2022-08-02T14:33:05.321Z,31.30
2022-08-02T14:35:33.687Z,31.30
2022-08-02T14:38:02.019Z,31.20
2022-08-02T14:40:31.724Z,31.30
2022-08-02T14:43:00.734Z,31.30
2022-08-02T14:45:36.693Z,31.30
2022-08-02T14:48:10.986Z,31.30
2022-08-02T14:50:40.116Z,31.30
2022-08-02T14:53:12.608Z,31.40
2022-08-02T14:55:42.531Z,31.40
2022-08-02T14:58:11.064Z,31.40
2022-08-02T15:00:41.161Z,31.50
2022-08-02T15:03:11.343Z,31.50
2022-08-02T15:05:39.687Z,31.50
2022-08-02T15:08:08.226Z,31.50
2022-08-02T15:10:36.493Z,31.40
2022-08-02T15:13:04.999Z,31.40
2022-08-02T15:15:43.263Z,31.30
2022-08-02T15:18:14.127Z,31.30
2022-08-02T15:20:47.114Z,31.20
2022-08-02T15:23:37.086Z,31.20
2022-08-02T15:26:22.257Z,31.20
2022-08-02T15:28:55.468Z,31.10
2022-08-02T15:31:33.323Z,31.00
2022-08-02T15:34:03.666Z,30.90
2022-08-02T15:36:31.836Z,30.90
2022-08-02T15:39:00.030Z,30.80
2022-08-02T15:41:28.811Z,30.70
2022-08-02T15:44:01.136Z,30.70
2022-08-02T15:46:30.808Z,30.60
2022-08-02T15:49:00.571Z,30.60
2022-08-02T15:51:30.179Z,30.50
2022-08-02T15:53:58.353Z,30.40
2022-08-02T15:56:26.736Z,30.40
2022-08-02T15:58:58.605Z,30.40
2022-08-02T16:01:37.464Z,30.40
2022-08-02T16:04:07.989Z,30.40
2022-08-02T16:06:37.791Z,30.50
2022-08-02T16:09:06.075Z,30.50
2022-08-02T16:11:34.440Z,30.50
2022-08-02T16:14:02.644Z,30.50
2022-08-02T16:16:32.325Z,30.60
2022-08-02T16:19:47.461Z,30.60
2022-08-02T16:21:51.592Z,30.60
2022-08-02T16:24:19.856Z,30.70
2022-08-02T16:26:48.235Z,30.70
2022-08-02T16:29:19.154Z,30.70
2022-08-02T16:31:48.171Z,30.70
2022-08-02T16:34:16.630Z,30.70
2022-08-02T16:36:45.333Z,30.70
2022-08-02T16:39:15.053Z,30.60
2022-08-02T16:41:50.570Z,30.70
2022-08-02T16:44:26.805Z,30.70
2022-08-02T16:47:11.443Z,30.70
2022-08-02T16:50:04.223Z,30.70
2022-08-02T16:52:28.983Z,30.70
2022-08-02T16:54:58.775Z,30.60
2022-08-02T16:57:43.563Z,30.70
2022-08-02T17:00:16.094Z,30.70
2022-08-02T17:02:47.142Z,30.60
2022-08-02T17:05:15.579Z,30.60
2022-08-02T17:08:08.690Z,30.60
2022-08-02T17:10:34.641Z,30.60
2022-08-02T17:13:11.288Z,30.60
2022-08-02T17:16:07.576Z,30.60
2022-08-02T17:18:29.419Z,30.60
2022-08-02T17:20:58.051Z,30.60
2022-08-02T17:24:04.026Z,30.60
2022-08-02T17:26:19.200Z,30.60
2022-08-02T17:31:42.924Z,30.60
2022-08-02T17:34:12.726Z,30.60
2022-08-02T17:36:41.004Z,30.60
2022-08-02T17:39:09.206Z,30.60
2022-08-02T17:41:48.908Z,30.60
2022-08-02T17:44:37.330Z,30.60
2022-08-02T17:47:07.436Z,30.60
2022-08-02T17:49:42.674Z,30.60
2022-08-02T17:52:49.097Z,30.50
2022-08-02T17:55:03.349Z,30.50
2022-08-02T17:57:57.579Z,30.50
2022-08-02T18:00:22.087Z,30.30
2022-08-02T18:02:55.016Z,30.30
2022-08-02T18:05:26.340Z,30.30
2022-08-02T18:08:07.993Z,30.20
2022-08-02T18:10:37.075Z,30.20
2022-08-02T18:13:06.734Z,30.20
2022-08-02T18:15:35.916Z,30.20
2022-08-02T18:18:04.249Z,30.20
2022-08-02T18:20:32.480Z,30.10
2022-08-02T18:23:00.718Z,30.10
2022-08-02T18:25:37.060Z,30.10
2022-08-02T18:28:16.776Z,30.10
2022-08-02T18:30:45.164Z,30.10
2022-08-02T18:33:55.766Z,30.10
2022-08-02T18:36:01.607Z,30.10
2022-08-02T18:38:31.435Z,30.10
2022-08-02T18:41:02.761Z,30.10
2022-08-02T18:43:43.624Z,30.00
2022-08-02T18:46:15.913Z,30.00
2022-08-02T18:48:47.919Z,30.00
2022-08-02T18:51:19.204Z,30.10
2022-08-02T18:53:51.311Z,30.10
2022-08-02T18:56:24.287Z,30.10
2022-08-02T18:58:55.438Z,30.00
2022-08-02T19:01:32.037Z,30.00
2022-08-02T19:04:03.228Z,30.10
2022-08-02T19:06:31.775Z,30.10
2022-08-02T19:09:11.466Z,30.10
2022-08-02T19:11:50.395Z,30.10
2022-08-02T19:17:16.150Z,30.10
2022-08-02T19:19:56.822Z,30.10
2022-08-02T19:22:25.365Z,30.10
2022-08-02T19:24:59.085Z,30.10
2022-08-02T19:27:32.705Z,30.10
2022-08-02T19:30:07.612Z,30.10
2022-08-02T19:32:39.583Z,30.10
2022-08-02T19:35:24.166Z,30.20
2022-08-02T19:38:08.749Z,30.20
2022-08-02T19:40:38.609Z,30.30
2022-08-02T19:44:25.692Z,30.30
2022-08-02T19:45:57.486Z,30.40
2022-08-02T19:48:26.986Z,30.40
2022-08-02T19:51:00.497Z,30.40
2022-08-02T19:53:47.110Z,30.40
2022-08-02T19:59:13.304Z,30.40
2022-08-02T20:01:48.609Z,30.30
2022-08-02T20:04:23.421Z,30.20
2022-08-02T20:06:52.219Z,30.10
2022-08-02T20:09:23.250Z,30.00
2022-08-02T20:11:54.717Z,30.00
2022-08-02T20:14:26.922Z,30.00
2022-08-02T20:17:00.619Z,30.00
2022-08-02T20:19:29.825Z,30.00
2022-08-02T20:22:00.231Z,30.10
2022-08-02T20:24:29.634Z,30.00
2022-08-02T20:26:59.154Z,30.00
2022-08-02T20:29:42.984Z,30.00
2022-08-02T20:32:23.334Z,30.00
2022-08-02T20:34:52.810Z,30.00
2022-08-02T20:38:00.630Z,30.00
2022-08-02T20:40:17.164Z,30.00
2022-08-02T20:43:00.556Z,30.00
2022-08-02T20:45:29.053Z,30.00
2022-08-02T20:48:03.240Z,30.00
2022-08-02T20:50:52.203Z,29.90
2022-08-02T20:53:23.512Z,29.90
2022-08-02T20:55:55.487Z,29.90
2022-08-02T20:58:27.337Z,29.90
2022-08-02T21:00:59.426Z,29.90
2022-08-02T21:03:38.942Z,29.90
2022-08-02T21:09:02.335Z,29.90
2022-08-02T21:11:34.090Z,29.90
2022-08-02T21:14:07.434Z,29.90
2022-08-02T21:16:37.369Z,29.90
2022-08-02T21:19:07.881Z,29.90
2022-08-02T21:21:38.151Z,29.90
2022-08-02T21:24:06.986Z,29.90
2022-08-02T21:26:40.826Z,29.90
2022-08-02T21:29:10.165Z,29.90
2022-08-02T21:31:42.065Z,29.90
2022-08-02T21:34:26.682Z,29.90
2022-08-02T21:36:56.074Z,29.90
2022-08-02T21:39:24.904Z,29.90
2022-08-02T21:41:53.428Z,29.90
2022-08-02T21:44:23.100Z,29.80
2022-08-02T21:46:52.920Z,29.80
2022-08-02T21:49:40.675Z,29.80
2022-08-02T21:52:13.193Z,29.80
2022-08-02T21:54:45.494Z,29.80
2022-08-02T21:57:15.983Z,29.80
2022-08-02T21:59:46.196Z,29.80
2022-08-02T22:02:15.545Z,29.80
2022-08-02T22:04:47.834Z,29.80
2022-08-02T22:07:23.673Z,29.70
2022-08-02T22:09:53.253Z,29.70
2022-08-02T22:12:26.015Z,29.70
2022-08-02T22:14:56.323Z,29.70
2022-08-02T22:17:50.598Z,29.70
2022-08-02T22:20:20.270Z,29.70
2022-08-02T22:22:50.511Z,29.70
2022-08-02T22:28:37.645Z,29.70
2022-08-02T22:31:04.387Z,29.70
2022-08-02T22:34:01.051Z,29.70
2022-08-02T22:36:33.024Z,29.60
2022-08-02T22:39:01.842Z,29.60
2022-08-02T22:42:00.171Z,29.60
2022-08-02T22:44:19.012Z,29.60
2022-08-02T22:46:50.167Z,29.60
2022-08-02T22:49:38.117Z,29.60
2022-08-02T22:52:14.042Z,29.60
2022-08-02T22:54:43.401Z,29.60
2022-08-02T22:57:11.837Z,29.60
2022-08-02T22:58:47.334Z,30.10
2022-08-02T22:58:51.465Z,30.60
2022-08-02T22:58:53.873Z,30.40
2022-08-02T22:59:01.820Z,29.90
2022-08-02T22:59:12.506Z,29.70
2022-08-02T22:59:41.301Z,29.60
2022-08-02T23:02:10.400Z,29.60
2022-08-02T23:04:39.420Z,29.60
2022-08-02T23:07:09.105Z,29.50
2022-08-02T23:09:37.700Z,29.60
2022-08-02T23:12:06.558Z,29.50
2022-08-02T23:14:36.305Z,29.60
2022-08-02T23:17:22.021Z,29.60
2022-08-02T23:19:53.012Z,29.60
2022-08-02T23:22:29.470Z,29.50
2022-08-02T23:25:01.582Z,29.50
2022-08-02T23:27:29.974Z,29.50
2022-08-02T23:29:58.227Z,29.60
2022-08-02T23:32:26.605Z,29.60
2022-08-02T23:34:54.865Z,29.60
2022-08-02T23:37:24.779Z,29.60
2022-08-02T23:39:53.134Z,29.50
2022-08-02T23:42:23.284Z,29.60
2022-08-02T23:44:51.555Z,29.50
2022-08-02T23:47:19.811Z,29.50
2022-08-02T23:49:48.696Z,29.50
2022-08-02T23:52:17.262Z,29.50
2022-08-02T23:54:47.224Z,29.50
2022-08-02T23:57:20.548Z,29.50
2022-08-02T23:59:52.431Z,29.50
